Time;durP1;ratioP1;P1;durP2;ratioP2;P2;SDS_P1;SDS_P2;PMS_P1;PMS_P2;Temp;Humidity;BMP_temperature;BMP_pressure;BME280_temperature;BME280_humidity;BME280_pressure;Samples;Min_cycle;Max_cycle;Signal;HPM_P1;HPM_P2
2024/04/14 00:01:59;;;;;;;17.58;3.65;;;;;;;17.54;63.35;102153.81;5519875;26;20031;-44
2024/04/14 00:04:24;;;;;;;14.60;3.85;;;;;;;17.40;63.52;102156.38;5520128;25;20013;-54
2024/04/14 00:06:49;;;;;;;18.95;4.00;;;;;;;17.64;63.14;102153.91;5519497;25;20006;-42
2024/04/14 00:09:15;;;;;;;17.65;3.92;;;;;;;17.30;63.90;102152.81;5517720;25;19993;-48
2024/04/14 00:11:40;;;;;;;16.20;3.72;;;;;;;17.00;65.52;102158.78;5517427;25;19997;-42
2024/04/14 00:14:05;;;;;;;17.13;4.18;;;;;;;17.22;65.39;102159.78;5520898;25;19994;-46
2024/04/14 00:16:31;;;;;;;16.55;4.07;;;;;;;17.12;65.68;102165.00;5521558;25;19993;-47
2024/04/14 00:18:56;;;;;;;19.00;4.45;;;;;;;17.02;65.92;102169.28;5521640;26;19997;-44
2024/04/14 00:21:24;;;;;;;16.75;4.00;;;;;;;17.10;66.22;102175.50;5521863;25;20005;-48
2024/04/14 00:23:52;;;;;;;18.95;4.55;;;;;;;17.06;66.98;102173.75;5516698;25;20103;-47
2024/04/14 00:26:17;;;;;;;16.67;4.20;;;;;;;17.27;65.87;102172.97;5515891;25;20058;-44
2024/04/14 00:28:44;;;;;;;17.10;4.25;;;;;;;17.35;65.63;102173.94;5517533;25;20069;-41
2024/04/14 00:31:09;;;;;;;21.00;4.03;;;;;;;17.31;65.78;102166.88;5516371;25;20009;-49
2024/04/14 00:33:35;;;;;;;13.68;3.45;;;;;;;17.12;65.55;102183.44;5515819;25;20012;-44
2024/04/14 00:36:04;;;;;;;17.40;3.22;;;;;;;16.89;65.69;102193.81;5515044;25;20005;-43
2024/04/14 00:38:30;;;;;;;15.57;3.17;;;;;;;16.93;63.26;102182.41;5514719;25;20348;-45
2024/04/14 00:40:55;;;;;;;14.77;2.67;;;;;;;16.80;62.36;102193.72;5518334;25;19997;-44
2024/04/14 00:43:21;;;;;;;12.80;2.60;;;;;;;16.78;61.85;102190.16;5516298;25;19997;-47
2024/04/14 00:45:46;;;;;;;9.25;2.50;;;;;;;16.84;61.61;102177.94;5516900;25;20081;-46
2024/04/14 00:48:12;;;;;;;11.73;2.25;;;;;;;16.65;61.67;102180.41;5516642;25;20652;-42
2024/04/14 00:50:39;;;;;;;10.55;2.28;;;;;;;16.77;60.92;102193.69;5516315;25;20510;-45
2024/04/14 00:53:05;;;;;;;11.45;1.98;;;;;;;16.73;60.68;102184.88;5514801;25;20456;-43
2024/04/14 00:55:31;;;;;;;11.52;1.88;;;;;;;16.75;60.61;102198.06;5515139;25;20037;-44
2024/04/14 00:57:57;;;;;;;10.93;2.30;;;;;;;16.54;60.39;102194.31;5518781;25;19993;-51
2024/04/14 01:00:24;;;;;;;14.45;2.13;;;;;;;16.02;61.92;102211.28;5516448;25;20012;-44
2024/04/14 01:02:53;;;;;;;10.65;2.22;;;;;;;16.27;61.21;102211.56;5514387;26;20359;-43
2024/04/14 01:05:21;;;;;;;10.45;2.13;;;;;;;16.30;60.53;102211.59;5514943;25;19993;-43
2024/04/14 01:07:47;;;;;;;10.57;1.92;;;;;;;16.28;60.31;102202.81;5515603;25;20020;-49
2024/04/14 01:10:12;;;;;;;10.90;2.15;;;;;;;16.16;59.88;102203.56;5516461;25;20010;-45
2024/04/14 01:12:37;;;;;;;12.00;2.03;;;;;;;15.94;60.30;102209.41;5513767;26;20012;-47
2024/04/14 01:15:03;;;;;;;11.15;1.70;;;;;;;16.17;59.24;102221.09;5517130;25;20516;-44
2024/04/14 01:17:28;;;;;;;13.80;2.25;;;;;;;16.10;60.19;102222.75;5516453;25;20012;-44
2024/04/14 01:19:53;;;;;;;10.18;1.95;;;;;;;16.06;59.40;102225.34;5517354;25;20004;-47
2024/04/14 01:22:19;;;;;;;10.60;1.98;;;;;;;16.01;59.97;102217.41;5515935;25;20400;-43
2024/04/14 01:24:44;;;;;;;10.43;1.90;;;;;;;15.87;59.88;102225.97;5518125;25;20065;-44
2024/04/14 01:27:09;;;;;;;7.85;1.60;;;;;;;16.07;59.33;102228.00;5519133;25;20009;-43
2024/04/14 01:29:35;;;;;;;8.15;1.88;;;;;;;15.89;60.22;102219.88;5515897;25;20001;-44
2024/04/14 01:32:00;;;;;;;13.43;2.08;;;;;;;15.90;59.66;102221.66;5517113;25;20069;-45
2024/04/14 01:34:25;;;;;;;6.25;1.75;;;;;;;15.84;60.19;102218.94;5514895;25;20029;-42
2024/04/14 01:36:51;;;;;;;11.70;2.20;;;;;;;15.78;60.40;102222.38;5517488;25;19994;-44
2024/04/14 01:39:16;;;;;;;10.82;2.20;;;;;;;15.72;60.85;102221.41;5515560;25;20123;-45
2024/04/14 01:41:41;;;;;;;11.25;2.15;;;;;;;15.75;60.90;102224.06;5516277;25;20009;-42
2024/04/14 01:44:07;;;;;;;11.73;2.47;;;;;;;15.65;60.31;102230.06;5516248;25;19994;-46
2024/04/14 01:46:32;;;;;;;11.52;2.22;;;;;;;15.99;59.44;102234.91;5515858;25;20004;-43
2024/04/14 01:48:57;;;;;;;9.82;2.30;;;;;;;15.90;59.24;102228.66;5516077;26;20008;-44
2024/04/14 01:51:22;;;;;;;14.82;2.30;;;;;;;15.83;59.01;102232.94;5514869;25;19993;-45
2024/04/14 01:53:48;;;;;;;11.20;2.55;;;;;;;15.79;58.85;102236.41;5517224;25;20707;-42
2024/04/14 01:56:13;;;;;;;10.27;2.15;;;;;;;15.80;58.69;102233.78;5515276;25;20005;-46
2024/04/14 01:58:38;;;;;;;8.52;2.03;;;;;;;15.46;59.85;102234.13;5515597;25;20050;-40
2024/04/14 02:01:04;;;;;;;11.18;2.10;;;;;;;15.66;59.46;102240.63;5517507;25;20054;-44
2024/04/14 02:03:29;;;;;;;10.35;2.55;;;;;;;15.77;58.38;102241.66;5513305;25;20012;-44
2024/04/14 02:05:58;;;;;;;12.68;2.53;;;;;;;15.66;58.66;102245.00;5516992;25;20077;-43
2024/04/14 02:08:23;;;;;;;10.60;2.33;;;;;;;15.64;58.54;102246.69;5514255;25;20008;-47
2024/04/14 02:10:48;;;;;;;10.95;2.30;;;;;;;15.61;58.55;102251.94;5515847;25;20001;-43
2024/04/14 02:13:14;;;;;;;10.02;2.00;;;;;;;15.62;58.56;102243.16;5514450;25;19997;-44
2024/04/14 02:15:40;;;;;;;9.30;1.98;;;;;;;15.69;58.58;102240.66;5516911;25;20017;-45
2024/04/14 02:18:05;;;;;;;15.75;2.42;;;;;;;15.63;58.69;102245.81;5518458;25;20008;-43
2024/04/14 02:20:30;;;;;;;9.38;1.98;;;;;;;15.85;58.06;102251.38;5518276;25;20001;-41
2024/04/14 02:22:56;;;;;;;10.63;2.17;;;;;;;15.86;58.09;102255.78;5513788;26;19998;-47
2024/04/14 02:25:21;;;;;;;9.30;2.30;;;;;;;15.73;58.45;102257.38;5512875;25;20016;-44
2024/04/14 02:27:46;;;;;;;7.80;1.70;;;;;;;15.57;58.70;102261.50;5512885;25;19993;-44
2024/04/14 02:30:12;;;;;;;9.88;1.83;;;;;;;15.76;58.23;102247.75;5515516;26;20010;-44
2024/04/14 02:32:38;;;;;;;9.68;1.92;;;;;;;15.80;58.22;102267.97;5515666;25;20008;-44
2024/04/14 02:35:06;;;;;;;10.60;2.33;;;;;;;15.87;57.91;102263.69;5511688;26;20012;-43
2024/04/14 02:37:32;;;;;;;10.50;1.83;;;;;;;16.02;57.39;102271.78;5508360;25;20008;-47
2024/04/14 02:39:57;;;;;;;9.48;1.70;;;;;;;15.77;57.64;102265.31;5514793;25;20009;-44
2024/04/14 02:42:22;;;;;;;10.43;1.70;;;;;;;15.92;57.58;102269.88;5513531;25;20043;-43
2024/04/14 02:44:48;;;;;;;8.45;1.70;;;;;;;16.07;56.70;102263.94;5514259;25;20463;-44
2024/04/14 02:47:14;;;;;;;9.68;1.83;;;;;;;15.68;57.19;102259.91;5513499;25;20385;-45
2024/04/14 02:49:39;;;;;;;12.63;1.92;;;;;;;15.66;57.23;102266.03;5513754;25;20767;-44
2024/04/14 02:52:05;;;;;;;9.80;1.77;;;;;;;15.52;58.15;102270.16;5514094;25;20001;-43
2024/04/14 02:54:31;;;;;;;11.90;1.63;;;;;;;15.46;57.38;102260.41;5513806;25;20008;-44
2024/04/14 02:56:57;;;;;;;12.50;1.85;;;;;;;15.53;57.05;102274.56;5513137;25;19997;-42
2024/04/14 02:59:22;;;;;;;8.38;2.10;;;;;;;15.58;56.39;102275.53;5513144;25;20528;-42
2024/04/14 03:01:47;;;;;;;7.18;1.75;;;;;;;15.87;55.28;102287.34;5515963;25;19993;-44
2024/04/14 03:04:13;;;;;;;7.63;1.90;;;;;;;15.59;55.76;102283.44;5511354;26;19989;-47
2024/04/14 03:06:38;;;;;;;9.23;1.73;;;;;;;15.37;56.11;102290.06;5513645;25;20005;-46
2024/04/14 03:09:04;;;;;;;7.07;1.52;;;;;;;15.40;56.02;102284.88;5513500;25;20488;-43
2024/04/14 03:11:29;;;;;;;8.73;1.90;;;;;;;15.62;54.96;102282.59;5513708;25;20005;-42
2024/04/14 03:13:54;;;;;;;7.35;1.40;;;;;;;15.87;54.32;102268.94;5518400;25;20069;-43
2024/04/14 03:16:20;;;;;;;14.85;1.83;;;;;;;15.81;54.67;102268.84;5516945;25;20536;-40
2024/04/14 03:18:48;;;;;;;8.88;1.60;;;;;;;15.74;54.56;102267.88;5516911;25;20025;-45
2024/04/14 03:21:14;;;;;;;10.20;1.40;;;;;;;15.82;53.71;102275.88;5517633;25;20008;-44
2024/04/14 03:23:39;;;;;;;10.18;1.50;;;;;;;15.74;54.24;102278.41;5517918;25;19997;-45
2024/04/14 03:26:05;;;;;;;8.23;1.50;;;;;;;15.43;54.61;102290.16;5516612;25;20020;-43
2024/04/14 03:28:31;;;;;;;10.30;1.70;;;;;;;15.82;53.15;102281.16;5518212;25;20068;-46
2024/04/14 03:31:01;;;;;;;11.98;2.58;;;;;;;16.00;52.67;102286.66;5518789;25;20008;-47
2024/04/14 03:33:30;;;;;;;8.65;1.90;;;;;;;15.79;52.94;102295.16;5520654;25;20009;-43
2024/04/14 03:36:04;;;;;;;12.60;1.67;;;;;;;15.92;52.13;102293.56;5521817;25;20507;-43
2024/04/14 03:38:30;;;;;;;6.38;1.42;;;;;;;15.91;52.41;102297.06;5520139;25;20010;-46
2024/04/14 03:40:55;;;;;;;9.00;1.50;;;;;;;15.86;52.53;102296.09;5522289;25;20438;-47
2024/04/14 03:43:20;;;;;;;8.73;1.67;;;;;;;16.08;52.07;102284.13;5523662;25;20077;-44
2024/04/14 03:45:46;;;;;;;9.32;1.55;;;;;;;15.84;52.04;102287.31;5525291;25;20001;-45
2024/04/14 03:48:11;;;;;;;9.10;1.55;;;;;;;15.88;52.02;102290.88;5526329;25;20011;-42
2024/04/14 03:50:36;;;;;;;10.10;1.40;;;;;;;15.64;53.42;102286.13;5526571;25;20009;-42
2024/04/14 03:53:02;;;;;;;11.50;1.67;;;;;;;15.53;53.50;102293.88;5527100;25;20065;-45
2024/04/14 03:55:27;;;;;;;11.55;1.88;;;;;;;15.99;52.19;102287.50;5524559;25;20089;-44
2024/04/14 03:57:52;;;;;;;11.27;1.95;;;;;;;15.70;53.12;102296.75;5523602;25;20408;-43
2024/04/14 04:00:18;;;;;;;11.00;1.73;;;;;;;16.00;51.97;102293.66;5523541;25;20008;-44
2024/04/14 04:02:43;;;;;;;7.50;1.30;;;;;;;16.18;51.59;102300.06;5524070;25;20563;-44
2024/04/14 04:05:08;;;;;;;10.15;1.73;;;;;;;15.97;52.62;102301.53;5523859;25;20011;-43
2024/04/14 04:07:34;;;;;;;6.47;1.58;;;;;;;16.24;51.57;102289.59;5523162;25;19997;-43
2024/04/14 04:10:00;;;;;;;9.85;1.90;;;;;;;16.03;52.18;102288.47;5523757;25;20077;-42
2024/04/14 04:12:25;;;;;;;13.48;1.85;;;;;;;15.94;52.77;102298.84;5522784;25;20011;-43
2024/04/14 04:14:51;;;;;;;8.20;1.80;;;;;;;15.93;52.50;102300.59;5523667;25;20013;-44
2024/04/14 04:17:16;;;;;;;8.40;1.45;;;;;;;16.07;52.45;102293.78;5522817;25;20007;-43
2024/04/14 04:19:42;;;;;;;9.00;1.83;;;;;;;16.00;52.82;102306.81;5523769;25;20094;-45
2024/04/14 04:22:07;;;;;;;15.88;1.77;;;;;;;15.81;53.11;102313.56;5523258;25;20001;-43
2024/04/14 04:24:32;;;;;;;13.10;1.80;;;;;;;15.91;53.22;102304.06;5522901;25;20591;-45
2024/04/14 04:26:58;;;;;;;6.93;1.60;;;;;;;16.01;51.89;102305.97;5524370;25;20009;-45
2024/04/14 04:29:24;;;;;;;11.43;1.80;;;;;;;15.90;52.47;102310.19;5524952;25;19997;-45
2024/04/14 04:31:50;;;;;;;8.05;1.60;;;;;;;15.46;52.63;102312.97;5524187;25;20001;-39
2024/04/14 04:34:16;;;;;;;9.60;1.70;;;;;;;15.73;52.29;102313.47;5523253;25;20001;-45
2024/04/14 04:36:44;;;;;;;8.05;1.63;;;;;;;15.48;52.24;102313.03;5523478;25;20481;-43
2024/04/14 04:39:09;;;;;;;7.20;1.45;;;;;;;15.48;52.03;102305.13;5523089;25;20435;-43
2024/04/14 04:41:35;;;;;;;9.57;1.90;;;;;;;15.64;52.29;102300.16;5522936;25;19997;-43
2024/04/14 04:44:03;;;;;;;8.77;1.60;;;;;;;15.52;52.08;102306.94;5521314;26;19998;-44
2024/04/14 04:46:29;;;;;;;11.20;1.63;;;;;;;15.40;51.58;102303.25;5520490;25;20340;-43
2024/04/14 04:48:56;;;;;;;8.73;1.65;;;;;;;15.20;52.31;102317.78;5523158;25;19997;-43
2024/04/14 04:51:22;;;;;;;6.85;1.50;;;;;;;15.57;51.19;102321.97;5523984;25;20047;-42
2024/04/14 04:53:48;;;;;;;9.70;1.35;;;;;;;15.75;50.52;102334.50;5524169;25;20008;-43
2024/04/14 04:56:13;;;;;;;8.98;1.45;;;;;;;15.98;49.69;102319.94;5523545;25;19997;-45
2024/04/14 04:58:38;;;;;;;9.43;1.70;;;;;;;15.67;50.37;102326.53;5522718;25;20473;-46
2024/04/14 05:01:04;;;;;;;8.77;1.30;;;;;;;15.76;50.02;102317.88;5523330;25;20005;-43
2024/04/14 05:03:29;;;;;;;10.85;1.50;;;;;;;15.63;50.09;102331.69;5522107;25;20432;-43
2024/04/14 05:05:58;;;;;;;9.70;1.63;;;;;;;15.76;50.10;102331.03;5522634;25;19997;-43
2024/04/14 05:08:26;;;;;;;7.75;1.65;;;;;;;15.75;50.09;102334.50;5522104;25;20447;-42
2024/04/14 05:10:53;;;;;;;8.43;1.77;;;;;;;15.70;50.25;102337.06;5522572;25;20467;-43
2024/04/14 05:13:18;;;;;;;9.75;1.60;;;;;;;15.85;50.54;102336.44;5522200;25;20076;-43
2024/04/14 05:15:43;;;;;;;9.93;1.60;;;;;;;15.80;50.36;102335.44;5522552;25;20009;-47
2024/04/14 05:18:09;;;;;;;8.30;1.40;;;;;;;15.78;50.19;102324.94;5522606;25;20013;-43
2024/04/14 05:20:35;;;;;;;10.77;1.63;;;;;;;15.88;50.88;102336.47;5521668;25;20009;-45
2024/04/14 05:23:00;;;;;;;7.38;1.63;;;;;;;15.92;51.00;102338.25;5523366;25;20001;-43
2024/04/14 05:25:26;;;;;;;6.78;1.60;;;;;;;15.93;51.21;102336.53;5522768;25;20002;-44
2024/04/14 05:27:51;;;;;;;8.00;2.00;;;;;;;15.80;52.42;102344.22;5522932;25;19997;-42
2024/04/14 05:30:17;;;;;;;6.45;1.25;;;;;;;15.97;51.72;102346.25;5523125;25;20005;-43
2024/04/14 05:32:42;;;;;;;13.10;1.95;;;;;;;15.89;52.14;102353.13;5522973;25;19998;-44
2024/04/14 05:35:07;;;;;;;7.65;1.60;;;;;;;16.08;52.19;102356.06;5521556;25;20009;-43
2024/04/14 05:37:33;;;;;;;18.13;1.88;;;;;;;15.81;53.82;102353.00;5522487;25;20081;-44
2024/04/14 05:39:58;;;;;;;9.55;1.65;;;;;;;15.77;54.24;102359.09;5523571;25;20471;-44
2024/04/14 05:42:23;;;;;;;10.05;1.73;;;;;;;15.92;54.14;102345.31;5522788;25;20038;-43
2024/04/14 05:44:49;;;;;;;7.85;1.65;;;;;;;16.05;53.83;102357.75;5523799;25;19997;-44
2024/04/14 05:47:15;;;;;;;9.30;1.70;;;;;;;16.17;53.53;102350.91;5522959;25;19998;-46
2024/04/14 05:49:41;;;;;;;16.50;2.10;;;;;;;16.04;53.64;102356.84;5522285;25;19998;-48
2024/04/14 05:52:06;;;;;;;9.68;2.22;;;;;;;16.04;54.01;102358.63;5522769;25;20008;-45
2024/04/14 05:54:32;;;;;;;11.73;1.60;;;;;;;15.77;54.68;102374.88;5522368;25;20001;-43
2024/04/14 05:56:57;;;;;;;12.43;1.65;;;;;;;15.80;54.71;102364.38;5522521;25;20002;-42
2024/04/14 05:59:22;;;;;;;9.63;1.88;;;;;;;15.66;54.60;102366.81;5522475;25;20078;-42
2024/04/14 06:01:48;;;;;;;8.40;1.70;;;;;;;15.88;53.88;102377.66;5522375;25;20005;-45
2024/04/14 06:04:13;;;;;;;12.95;2.15;;;;;;;15.98;53.37;102362.03;5522471;25;20444;-48
2024/04/14 06:06:38;;;;;;;9.15;1.92;;;;;;;16.18;52.31;102362.31;5522267;25;20095;-43
2024/04/14 06:09:04;;;;;;;17.15;2.42;;;;;;;16.15;52.17;102376.34;5522439;25;20440;-44
2024/04/14 06:11:30;;;;;;;10.35;1.58;;;;;;;16.26;50.89;102387.00;5523849;25;19997;-44
2024/04/14 06:13:55;;;;;;;10.73;1.50;;;;;;;16.07;50.08;102377.06;5522744;25;20030;-44
2024/04/14 06:16:20;;;;;;;11.05;1.58;;;;;;;16.40;49.27;102381.94;5522854;25;20468;-42
2024/04/14 06:18:46;;;;;;;7.05;1.60;;;;;;;16.31;49.77;102379.16;5524922;25;20017;-44
2024/04/14 06:21:11;;;;;;;8.80;1.70;;;;;;;16.09;49.62;102384.13;5526669;25;20336;-45
2024/04/14 06:23:37;;;;;;;7.97;1.60;;;;;;;16.48;48.71;102378.53;5526331;25;20065;-43
2024/04/14 06:26:03;;;;;;;11.68;1.73;;;;;;;16.28;49.12;102387.03;5523974;25;20095;-45
2024/04/14 06:28:28;;;;;;;10.77;1.73;;;;;;;16.49;48.77;102395.22;5523523;25;20009;-45
2024/04/14 06:30:54;;;;;;;7.28;1.60;;;;;;;16.74;47.03;102401.72;5524301;25;20340;-44
2024/04/14 06:33:20;;;;;;;9.35;1.85;;;;;;;16.63;47.41;102396.31;5521465;25;20034;-43
2024/04/14 06:35:45;;;;;;;8.57;1.45;;;;;;;16.36;47.85;102399.41;5520663;25;20008;-44
2024/04/14 06:38:11;;;;;;;5.60;1.40;;;;;;;16.48;47.73;102401.34;5520983;25;20046;-44
2024/04/14 06:40:36;;;;;;;7.82;1.70;;;;;;;16.29;47.24;102410.72;5520687;25;20351;-43
2024/04/14 06:43:01;;;;;;;8.18;1.73;;;;;;;16.40;47.16;102405.63;5521349;25;20070;-43
2024/04/14 06:45:26;;;;;;;9.50;1.50;;;;;;;16.72;46.86;102406.06;5520906;25;20455;-43
2024/04/14 06:47:52;;;;;;;10.95;1.60;;;;;;;16.70;46.72;102406.06;5524549;25;20025;-45
2024/04/14 06:50:17;;;;;;;8.40;1.67;;;;;;;16.79;47.13;102400.00;5523869;25;20343;-43
2024/04/14 06:52:42;;;;;;;9.68;1.67;;;;;;;16.51;46.24;102412.81;5522442;26;20012;-43
2024/04/14 06:55:11;;;;;;;9.23;1.50;;;;;;;16.91;45.86;102413.31;5525052;25;20001;-42
2024/04/14 06:57:37;;;;;;;14.93;1.63;;;;;;;16.81;46.33;102411.47;5527857;25;20009;-44
2024/04/14 07:00:02;;;;;;;8.27;1.65;;;;;;;16.56;46.26;102411.13;5524904;25;20072;-46
2024/04/14 07:02:27;;;;;;;11.15;1.50;;;;;;;16.52;46.29;102404.03;5524096;25;20001;-44
2024/04/14 07:04:53;;;;;;;6.50;1.45;;;;;;;16.83;45.17;102410.59;5524345;25;20076;-43
2024/04/14 07:07:18;;;;;;;5.97;1.38;;;;;;;17.10;44.20;102414.41;5523697;25;20002;-42
2024/04/14 07:09:43;;;;;;;8.05;1.20;;;;;;;17.01;43.00;102408.19;5524511;25;19997;-44
2024/04/14 07:12:09;;;;;;;7.53;1.30;;;;;;;17.16;41.16;102410.09;5524395;25;20038;-44
2024/04/14 07:14:34;;;;;;;8.70;1.52;;;;;;;17.19;39.96;102404.88;5524192;25;20433;-45
2024/04/14 07:16:59;;;;;;;7.53;1.30;;;;;;;17.33;39.58;102408.53;5523857;25;20012;-43
2024/04/14 07:19:24;;;;;;;8.25;1.20;;;;;;;17.42;38.55;102413.91;5523838;25;19997;-43
2024/04/14 07:21:50;;;;;;;7.03;1.30;;;;;;;17.25;38.39;102410.22;5524353;25;20016;-44
2024/04/14 07:24:15;;;;;;;7.43;1.08;;;;;;;17.80;38.24;102409.00;5524601;25;20017;-44
2024/04/14 07:26:40;;;;;;;5.93;1.20;;;;;;;17.96;38.45;102417.03;5523240;25;20005;-49
2024/04/14 07:29:05;;;;;;;4.13;1.17;;;;;;;17.94;38.52;102416.13;5528397;25;20005;-43
2024/04/14 07:31:31;;;;;;;7.20;1.17;;;;;;;18.14;37.20;102417.16;5524899;25;20005;-45
2024/04/14 07:33:59;;;;;;;5.28;1.25;;;;;;;17.68;37.86;102418.56;5524805;25;20456;-42
2024/04/14 07:36:25;;;;;;;6.00;1.17;;;;;;;17.70;36.92;102430.88;5524211;25;20012;-51
2024/04/14 07:38:50;;;;;;;4.43;1.00;;;;;;;17.57;37.13;102428.97;5524748;25;19993;-46
2024/04/14 07:41:15;;;;;;;6.32;1.20;;;;;;;18.43;36.21;102434.06;5524226;25;19993;-47
2024/04/14 07:43:40;;;;;;;6.65;1.05;;;;;;;18.11;36.30;102446.19;5524384;25;20064;-45
2024/04/14 07:46:06;;;;;;;3.55;0.90;;;;;;;18.25;35.06;102437.47;5523800;25;19998;-43
2024/04/14 07:48:31;;;;;;;5.00;1.00;;;;;;;18.21;34.37;102446.25;5523677;25;20008;-44
2024/04/14 07:50:56;;;;;;;3.30;1.40;;;;;;;18.66;34.39;102441.28;5523394;25;20009;-45
2024/04/14 07:53:22;;;;;;;6.90;1.50;;;;;;;18.41;34.26;102438.47;5523377;25;20001;-46
2024/04/14 07:55:47;;;;;;;3.80;1.17;;;;;;;18.40;35.06;102441.97;5523503;25;19997;-44
2024/04/14 07:58:12;;;;;;;8.40;1.35;;;;;;;17.90;37.07;102446.88;5522456;25;20001;-44
2024/04/14 08:00:37;;;;;;;8.50;1.20;;;;;;;18.22;36.49;102448.03;5523213;25;19993;-44
2024/04/14 08:03:03;;;;;;;4.60;1.02;;;;;;;17.68;37.62;102443.19;5523266;25;20325;-43
2024/04/14 08:05:28;;;;;;;4.57;1.30;;;;;;;18.15;36.82;102438.28;5522794;25;20012;-45
2024/04/14 08:07:54;;;;;;;5.18;1.20;;;;;;;17.65;37.84;102435.22;5522953;25;20397;-42
2024/04/14 08:10:19;;;;;;;6.80;1.20;;;;;;;17.42;37.87;102436.75;5523566;25;20012;-42
2024/04/14 08:12:44;;;;;;;5.82;1.10;;;;;;;17.93;36.25;102440.75;5524730;25;20046;-43
2024/04/14 08:15:10;;;;;;;6.30;1.60;;;;;;;18.00;36.37;102447.81;5524834;25;20010;-45
2024/04/14 08:17:35;;;;;;;6.53;1.25;;;;;;;17.56;38.05;102447.44;5523290;25;20013;-45
2024/04/14 08:20:01;;;;;;;6.35;1.30;;;;;;;18.22;35.82;102444.50;5523543;25;20001;-44
2024/04/14 08:22:26;;;;;;;3.92;1.00;;;;;;;18.08;36.38;102436.47;5522924;25;20001;-44
2024/04/14 08:24:51;;;;;;;9.77;1.20;;;;;;;17.32;38.59;102435.75;5523097;25;20074;-43
2024/04/14 08:27:16;;;;;;;6.05;1.42;;;;;;;17.09;40.06;102445.16;5522362;25;19998;-43
2024/04/14 08:29:42;;;;;;;7.05;1.17;;;;;;;16.90;40.04;102446.69;5521201;25;20001;-43
2024/04/14 08:32:07;;;;;;;9.73;1.45;;;;;;;17.18;40.29;102447.03;5523732;25;20001;-49
2024/04/14 08:34:32;;;;;;;8.95;1.30;;;;;;;17.08;40.29;102440.75;5523005;25;20012;-44
2024/04/14 08:36:58;;;;;;;7.53;1.23;;;;;;;17.51;40.60;102443.84;5522731;25;20006;-45
2024/04/14 08:39:23;;;;;;;7.85;1.27;;;;;;;17.27;39.55;102440.09;5522870;25;20433;-50
2024/04/14 08:41:48;;;;;;;4.05;1.30;;;;;;;18.19;37.85;102445.34;5524598;25;19997;-44
2024/04/14 08:44:14;;;;;;;6.15;1.38;;;;;;;17.78;37.50;102430.94;5523164;25;20012;-45
2024/04/14 08:46:46;;;;;;;7.15;1.02;;;;;;;17.97;36.57;102442.53;5522758;25;20008;-48
2024/04/14 08:49:12;;;;;;;3.60;1.10;;;;;;;17.87;36.28;102438.06;5523440;25;20081;-43
2024/04/14 08:51:38;;;;;;;4.68;1.10;;;;;;;17.89;35.80;102446.88;5522858;25;19997;-45
2024/04/14 08:54:03;;;;;;;6.40;1.45;;;;;;;17.39;36.62;102434.94;5523597;25;19994;-43
2024/04/14 08:56:30;;;;;;;3.20;1.08;;;;;;;18.07;35.58;102444.38;5525498;25;20009;-44
2024/04/14 08:59:04;;;;;;;6.90;1.40;;;;;;;18.26;34.65;102448.91;5526282;25;20444;-43
2024/04/14 09:01:30;;;;;;;10.07;1.27;;;;;;;18.59;33.76;102440.34;5525156;25;20009;-44
2024/04/14 09:03:55;;;;;;;5.80;1.20;;;;;;;18.43;35.83;102443.72;5523953;25;20001;-44
2024/04/14 09:06:22;;;;;;;7.70;1.27;;;;;;;18.02;35.87;102451.38;5520642;25;20009;-44
2024/04/14 09:08:48;;;;;;;5.18;1.13;;;;;;;17.75;36.28;102449.38;5524970;25;20001;-45
2024/04/14 09:11:13;;;;;;;5.95;1.20;;;;;;;17.67;36.35;102451.97;5525668;25;20053;-47
2024/04/14 09:13:39;;;;;;;6.72;1.15;;;;;;;17.52;37.14;102462.31;5524443;25;20042;-45
2024/04/14 09:16:07;;;;;;;5.45;1.27;;;;;;;17.64;37.15;102472.13;5523773;25;19993;-44
2024/04/14 09:18:32;;;;;;;4.75;1.13;;;;;;;17.73;36.97;102469.59;5522208;25;19998;-45
2024/04/14 09:21:01;;;;;;;7.53;1.15;;;;;;;18.44;36.73;102459.59;5522653;25;20009;-44
2024/04/14 09:23:27;;;;;;;4.97;1.13;;;;;;;18.48;35.56;102466.66;5523211;25;20039;-44
2024/04/14 09:25:53;;;;;;;6.00;1.13;;;;;;;17.64;35.85;102465.09;5524399;25;20002;-45
2024/04/14 09:28:18;;;;;;;5.30;1.30;;;;;;;18.20;35.71;102457.69;5522114;25;20090;-42
2024/04/14 09:30:43;;;;;;;7.90;1.38;;;;;;;18.07;35.71;102463.72;5521761;25;19997;-44
2024/04/14 09:33:09;;;;;;;2.85;1.00;;;;;;;18.49;34.87;102464.88;5522855;25;20021;-42
2024/04/14 09:35:34;;;;;;;6.22;1.00;;;;;;;18.53;34.59;102464.06;5521733;25;20400;-44
2024/04/14 09:38:00;;;;;;;7.78;1.10;;;;;;;18.73;35.02;102458.88;5522097;25;20050;-42
2024/04/14 09:40:25;;;;;;;5.47;1.20;;;;;;;18.12;35.39;102467.28;5522360;25;19993;-43
2024/04/14 09:42:57;;;;;;;7.32;1.42;;;;;;;17.53;36.23;102461.47;5522580;25;20012;-48
2024/04/14 09:45:24;;;;;;;5.72;1.30;;;;;;;18.27;35.38;102458.59;5521208;25;19997;-45
2024/04/14 09:47:52;;;;;;;4.68;1.05;;;;;;;18.54;35.27;102464.03;5521852;25;20069;-44
2024/04/14 09:50:20;;;;;;;7.93;1.33;;;;;;;17.71;36.64;102468.69;5521734;25;20321;-44
2024/04/14 09:52:50;;;;;;;5.70;1.25;;;;;;;18.31;36.21;102476.22;5522481;25;20001;-43
2024/04/14 09:55:15;;;;;;;5.93;1.30;;;;;;;17.68;37.63;102482.75;5522219;25;20058;-45
2024/04/14 09:57:41;;;;;;;5.10;1.10;;;;;;;16.88;37.68;102484.44;5521755;26;20377;-46
2024/04/14 10:00:10;;;;;;;8.48;1.45;;;;;;;17.31;39.30;102478.81;5523509;25;20012;-42
2024/04/14 10:02:44;;;;;;;6.55;1.40;;;;;;;17.31;40.05;102483.19;5523635;25;20018;-44
2024/04/14 10:05:10;;;;;;;9.98;1.70;;;;;;;17.25;39.29;102491.03;5522801;25;20391;-46
2024/04/14 10:07:37;;;;;;;7.32;1.30;;;;;;;17.07;38.70;102498.72;5522002;25;20009;-43
2024/04/14 10:10:06;;;;;;;6.10;1.30;;;;;;;17.57;37.55;102494.88;5522138;25;20001;-43
2024/04/14 10:12:35;;;;;;;7.95;1.60;;;;;;;17.59;38.47;102487.00;5521008;25;20001;-42
2024/04/14 10:15:05;;;;;;;5.43;1.10;;;;;;;17.64;37.32;102483.56;5521784;25;20085;-42
2024/04/14 10:17:32;;;;;;;6.20;1.50;;;;;;;17.53;37.27;102479.91;5521410;25;20371;-45
2024/04/14 10:20:00;;;;;;;6.82;1.60;;;;;;;17.69;36.67;102478.34;5521958;25;20029;-43
2024/04/14 10:22:35;;;;;;;4.63;1.33;;;;;;;17.43;37.15;102475.44;5521641;25;19998;-43
2024/04/14 10:25:00;;;;;;;4.78;0.95;;;;;;;17.95;35.86;102479.47;5521774;25;20005;-47
2024/04/14 10:27:29;;;;;;;7.35;1.40;;;;;;;18.05;36.42;102486.56;5521108;25;20467;-45
2024/04/14 10:29:56;;;;;;;8.50;1.55;;;;;;;18.10;35.55;102481.34;5521606;25;19993;-45
2024/04/14 10:32:22;;;;;;;6.43;1.30;;;;;;;17.97;35.69;102482.13;5521188;25;20032;-44
2024/04/14 10:34:47;;;;;;;7.57;1.20;;;;;;;18.04;35.16;102482.19;5521522;25;20001;-45
2024/04/14 10:37:21;;;;;;;7.28;1.55;;;;;;;18.33;35.45;102473.59;5521375;25;20008;-49
2024/04/14 10:39:47;;;;;;;6.05;1.45;;;;;;;18.06;36.32;102477.78;5521547;25;20013;-52
2024/04/14 10:42:14;;;;;;;4.93;1.30;;;;;;;17.73;36.25;102470.50;5520048;26;20357;-48
2024/04/14 10:44:43;;;;;;;5.15;1.33;;;;;;;17.64;36.48;102466.88;5520785;25;20010;-43
2024/04/14 10:47:10;;;;;;;5.88;1.35;;;;;;;17.97;36.93;102472.44;5521002;25;20001;-47
2024/04/14 10:49:36;;;;;;;6.90;1.60;;;;;;;18.25;36.24;102473.53;5520951;25;19998;-43
2024/04/14 10:52:01;;;;;;;5.05;1.30;;;;;;;18.14;36.75;102462.91;5521132;25;19997;-46
2024/04/14 10:54:29;;;;;;;7.43;1.85;;;;;;;17.49;38.15;102457.03;5522452;25;20002;-47
2024/04/14 10:56:54;;;;;;;5.43;1.85;;;;;;;17.10;39.90;102456.59;5524615;25;20479;-44
2024/04/14 10:59:20;;;;;;;10.40;1.50;;;;;;;17.65;39.63;102448.41;5523534;25;20001;-43
2024/04/14 11:01:46;;;;;;;7.43;1.80;;;;;;;17.64;39.52;102449.28;5524486;25;20007;-48
2024/04/14 11:04:16;;;;;;;12.82;2.00;;;;;;;17.48;39.75;102447.34;5524443;25;20005;-42
2024/04/14 11:06:42;;;;;;;9.27;1.60;;;;;;;17.68;39.65;102442.31;5523069;25;20084;-44
2024/04/14 11:09:08;;;;;;;9.93;1.90;;;;;;;17.96;40.13;102448.69;5523562;25;20009;-44
2024/04/14 11:11:33;;;;;;;6.70;1.73;;;;;;;18.42;38.18;102436.72;5522817;25;20008;-42
2024/04/14 11:13:59;;;;;;;7.32;1.60;;;;;;;18.02;38.94;102443.47;5551222;25;20009;-44
2024/04/14 11:16:25;;;;;;;5.00;1.90;;;;;;;18.00;39.09;102434.63;5519948;25;20004;-50